Panda — H8NH — position and weather

sailwx.info

Track history (hours):
 
Tides and Currents Weather Stations Pressure Air Temp Water Temp Dewpoint Dewpoint Depression Visibility Wind Speed Wind Dir Waves Ship Positions

Panda

Last reported at 2016-May-22 03:05 UTC. Time now 2016-May-25 22:46 UTC.
Position N 31°14' E 029°41'.

Length 171 m; draft 9.6 m.

Type: Cargo ship. MMSI: 352528000.

Date/timePositionNaut miles runAvg speedWind from/ knotsBaromVisibWave heightAir tempDewpointWater temp
2016-May-22 03:05N 31°14' E 029°41'0 0.0
2016-May-22 02:23N 31°14' E 029°41'  
2016-May-17 20:13N 31°19' E 029°42'41010.1
2016-May-16 03:33N 37°24' E 025°54'20 9.9
2016-May-16 01:33N 37°43' E 025°47'141 8.8
2016-May-15 09:32N 40°02' E 026°13'11 9.4
2016-May-15 08:22N 40°11' E 026°23'  
2016-May-13 00:31N 45°24' E 030°48'9 9.9
2016-May-12 23:33N 45°33' E 030°52'10 9.8
2016-May-12 22:33N 45°42' E 030°56'10 9.7
2016-May-12 21:34N 45°51' E 031°00'10 9.9
2016-May-12 20:34N 46°01' E 031°04'9 8.5
2016-May-12 19:34N 46°09' E 031°02'10 9.8
2016-May-12 18:34N 46°16' E 030°52'8 7.7
2016-May-12 17:34N 46°19' E 030°41'1 1.4
2016-May-12 16:34N 46°20' E 030°39'0 0.0
2016-May-12 15:33N 46°20' E 030°39'0 0.0
2016-May-12 14:34N 46°20' E 030°39'0 0.0
2016-May-12 13:34N 46°20' E 030°39'0 0.0
2016-May-12 12:34N 46°20' E 030°39'0 0.0
2016-May-12 11:34N 46°20' E 030°39'0 0.0
2016-May-12 10:34N 46°20' E 030°39'0 0.0
2016-May-12 09:34N 46°20' E 030°39'0 0.0
2016-May-12 08:34N 46°20' E 030°39'0 0.0
2016-May-12 07:34N 46°20' E 030°39'0 0.0
2016-May-12 06:34N 46°20' E 030°39'0 0.0
2016-May-12 05:34N 46°20' E 030°39'0 0.0
2016-May-12 04:33N 46°20' E 030°39'0 0.0
2016-May-12 03:34N 46°20' E 030°39'  
Track history (hours):
 
Tides and Currents Weather Stations Pressure Air Temp Water Temp Dewpoint Dewpoint Depression Visibility Wind Speed Wind Dir Waves Ship Positions

Panda

Last reported at 2016-May-22 03:05 UTC. Time now 2016-May-25 22:46 UTC.
Position N 31°14' E 029°41'.

Length 171 m; draft 9.6 m.

Type: Cargo ship. MMSI: 352528000.

Date/timePositionNaut miles runAvg speedWind from/ knotsBaromVisibWave heightAir tempDewpointWater temp
2016-May-22 03:05N 31°14' E 029°41'0 0.0
2016-May-22 02:23N 31°14' E 029°41'  
2016-May-17 20:13N 31°19' E 029°42'41010.1
2016-May-16 03:33N 37°24' E 025°54'20 9.9
2016-May-16 01:33N 37°43' E 025°47'141 8.8
2016-May-15 09:32N 40°02' E 026°13'11 9.4
2016-May-15 08:22N 40°11' E 026°23'  
2016-May-13 00:31N 45°24' E 030°48'9 9.9
2016-May-12 23:33N 45°33' E 030°52'10 9.8
2016-May-12 22:33N 45°42' E 030°56'10 9.7
2016-May-12 21:34N 45°51' E 031°00'10 9.9
2016-May-12 20:34N 46°01' E 031°04'9 8.5
2016-May-12 19:34N 46°09' E 031°02'10 9.8
2016-May-12 18:34N 46°16' E 030°52'8 7.7
2016-May-12 17:34N 46°19' E 030°41'1 1.4
2016-May-12 16:34N 46°20' E 030°39'0 0.0
2016-May-12 15:33N 46°20' E 030°39'0 0.0
2016-May-12 14:34N 46°20' E 030°39'0 0.0
2016-May-12 13:34N 46°20' E 030°39'0 0.0
2016-May-12 12:34N 46°20' E 030°39'0 0.0
2016-May-12 11:34N 46°20' E 030°39'0 0.0
2016-May-12 10:34N 46°20' E 030°39'0 0.0
2016-May-12 09:34N 46°20' E 030°39'0 0.0
2016-May-12 08:34N 46°20' E 030°39'0 0.0
2016-May-12 07:34N 46°20' E 030°39'0 0.0
2016-May-12 06:34N 46°20' E 030°39'0 0.0
2016-May-12 05:34N 46°20' E 030°39'0 0.0
2016-May-12 04:33N 46°20' E 030°39'0 0.0
2016-May-12 03:34N 46°20' E 030°39'  

Dump ship's entire track history